createdAt,value
2022-08-19T00:01:59.274Z,21.88
2022-08-19T00:04:30.801Z,21.73
2022-08-19T00:06:58.848Z,21.65
2022-08-19T00:09:26.418Z,21.49
2022-08-19T00:11:55.627Z,21.46
2022-08-19T00:14:23.735Z,21.38
2022-08-19T00:16:51.086Z,21.46
2022-08-19T00:19:18.611Z,21.56
2022-08-19T00:21:45.487Z,21.85
2022-08-19T00:24:15.369Z,21.55
2022-08-19T00:26:44.975Z,21.40
2022-08-19T00:29:14.601Z,21.71
2022-08-19T00:31:42.501Z,21.61
2022-08-19T00:34:09.362Z,21.60
2022-08-19T00:36:36.384Z,21.45
2022-08-19T00:39:03.239Z,21.64
2022-08-19T00:41:30.792Z,21.93
2022-08-19T00:44:06.134Z,22.12
2022-08-19T00:46:34.612Z,22.22
2022-08-19T00:49:07.796Z,21.90
2022-08-19T00:51:34.765Z,22.11
2022-08-19T00:54:04.396Z,22.18
2022-08-19T00:56:32.636Z,21.86
2022-08-19T00:59:00.746Z,21.59
2022-08-19T01:01:27.778Z,21.56
2022-08-19T01:03:57.615Z,21.66
2022-08-19T01:06:26.768Z,21.52
2022-08-19T01:08:55.427Z,21.56
2022-08-19T01:11:22.367Z,21.78
2022-08-19T01:13:51.286Z,21.56
2022-08-19T01:16:21.107Z,21.39
2022-08-19T01:18:48.578Z,21.19
2022-08-19T01:21:32.507Z,21.20
2022-08-19T01:23:59.401Z,21.44
2022-08-19T01:26:27.730Z,21.74
2022-08-19T01:28:59.546Z,21.50
2022-08-19T01:31:30.970Z,21.24
2022-08-19T01:34:02.818Z,21.10
2022-08-19T01:36:36.439Z,20.90
2022-08-19T01:39:07.952Z,20.79
2022-08-19T01:41:35.651Z,20.72
2022-08-19T01:44:17.915Z,20.70
2022-08-19T01:46:49.271Z,20.57
2022-08-19T01:49:18.364Z,20.45
2022-08-19T01:51:45.934Z,20.41
2022-08-19T01:54:15.084Z,20.62
2022-08-19T01:57:00.670Z,20.64
2022-08-19T01:59:27.734Z,20.64
2022-08-19T02:01:54.542Z,20.66
2022-08-19T02:04:21.463Z,20.83
2022-08-19T02:06:48.240Z,20.78
2022-08-19T02:09:15.216Z,20.62
2022-08-19T02:11:42.573Z,20.51
2022-08-19T02:14:10.077Z,20.58
2022-08-19T02:16:38.367Z,20.55
2022-08-19T02:19:05.863Z,20.81
2022-08-19T02:21:33.377Z,20.94
2022-08-19T02:24:00.365Z,20.56
2022-08-19T02:26:27.872Z,20.45
2022-08-19T02:28:55.337Z,20.20
2022-08-19T02:31:25.669Z,20.68
2022-08-19T02:33:56.849Z,21.17
2022-08-19T02:36:25.886Z,21.49
2022-08-19T02:38:54.958Z,21.64
2022-08-19T02:41:28.313Z,21.74
2022-08-19T02:44:26.644Z,21.81
2022-08-19T02:46:48.641Z,21.85
2022-08-19T02:49:15.471Z,21.88
2022-08-19T02:51:44.931Z,21.92
2022-08-19T02:54:13.711Z,21.98
2022-08-19T02:56:43.635Z,22.01
2022-08-19T02:59:11.305Z,22.05
2022-08-19T03:01:40.817Z,22.02
2022-08-19T03:04:12.143Z,22.04
2022-08-19T03:06:41.976Z,22.02
2022-08-19T03:09:09.496Z,22.06
2022-08-19T03:11:36.507Z,22.18
2022-08-19T03:14:04.846Z,22.20
2022-08-19T03:16:35.255Z,22.23
2022-08-19T03:19:02.866Z,21.95
2022-08-19T03:21:33.227Z,21.94
2022-08-19T03:24:04.430Z,21.95
2022-08-19T03:26:31.947Z,21.83
2022-08-19T03:28:59.173Z,21.73
2022-08-19T03:31:44.155Z,21.67
2022-08-19T03:34:19.238Z,21.65
2022-08-19T03:36:47.721Z,21.58
2022-08-19T03:39:16.454Z,21.49
2022-08-19T03:41:46.480Z,21.54
2022-08-19T03:44:22.203Z,21.41
2022-08-19T03:46:56.590Z,21.48
2022-08-19T03:49:27.223Z,21.33
2022-08-19T03:51:58.503Z,21.38
2022-08-19T03:54:27.508Z,21.40
2022-08-19T03:56:56.325Z,21.20
2022-08-19T03:59:29.993Z,21.10
2022-08-19T04:01:58.974Z,21.15
2022-08-19T04:04:29.049Z,21.18
2022-08-19T04:06:57.563Z,21.03
2022-08-19T04:09:24.843Z,21.02
2022-08-19T04:11:54.523Z,20.94
2022-08-19T04:14:27.033Z,21.05
2022-08-19T04:16:55.345Z,21.17
2022-08-19T04:19:22.398Z,21.06
2022-08-19T04:21:51.976Z,21.14
2022-08-19T04:24:20.139Z,21.21
2022-08-19T04:26:48.154Z,21.08
2022-08-19T04:29:18.476Z,21.03
2022-08-19T04:31:46.962Z,21.10
2022-08-19T04:34:17.016Z,21.23
2022-08-19T04:36:45.448Z,21.25
2022-08-19T04:39:18.099Z,21.37
2022-08-19T04:41:45.877Z,21.31
2022-08-19T04:44:13.944Z,21.36
2022-08-19T04:46:51.536Z,21.46
2022-08-19T04:49:23.832Z,21.63
2022-08-19T04:51:52.790Z,21.83
2022-08-19T04:54:37.080Z,21.96
2022-08-19T04:57:08.598Z,21.98
2022-08-19T04:59:37.054Z,22.01
2022-08-19T05:02:05.810Z,21.98
2022-08-19T05:04:32.783Z,22.00
2022-08-19T05:07:01.001Z,21.89
2022-08-19T05:09:52.551Z,21.84
2022-08-19T05:12:16.349Z,21.79
2022-08-19T05:14:43.151Z,21.80
2022-08-19T05:19:58.022Z,21.86
2022-08-19T05:22:25.185Z,21.90
2022-08-19T05:25:11.608Z,21.95
2022-08-19T05:27:39.934Z,22.04
2022-08-19T05:30:07.327Z,22.05
2022-08-19T05:32:34.388Z,22.10
2022-08-19T05:35:01.267Z,22.19
2022-08-19T05:37:28.268Z,22.17
2022-08-19T05:39:56.404Z,22.17
2022-08-19T05:42:24.018Z,22.12
2022-08-19T05:44:52.030Z,22.10
2022-08-19T05:47:20.047Z,22.09
2022-08-19T05:49:47.081Z,22.11
2022-08-19T05:52:15.731Z,22.04
2022-08-19T05:54:47.106Z,22.02
2022-08-19T05:57:18.113Z,22.05
2022-08-19T05:59:45.211Z,22.02
2022-08-19T06:02:13.116Z,21.96
2022-08-19T06:04:39.912Z,22.00
2022-08-19T06:07:12.303Z,21.95
2022-08-19T06:09:40.456Z,21.98
2022-08-19T06:12:08.274Z,22.01
2022-08-19T06:14:40.303Z,21.84
2022-08-19T06:17:09.366Z,21.87
2022-08-19T06:19:40.884Z,21.84
2022-08-19T06:22:08.828Z,21.85
2022-08-19T06:24:37.343Z,21.88
2022-08-19T06:27:04.934Z,21.88
2022-08-19T06:29:32.987Z,21.91
2022-08-19T06:32:01.882Z,21.92
2022-08-19T06:34:32.596Z,22.04
2022-08-19T06:37:01.690Z,22.08
2022-08-19T06:39:33.854Z,22.12
2022-08-19T06:42:02.860Z,22.08
2022-08-19T06:44:33.740Z,22.11
2022-08-19T06:47:09.418Z,22.17
2022-08-19T06:49:37.259Z,22.22
2022-08-19T06:52:05.030Z,22.27
2022-08-19T06:54:32.960Z,22.38
2022-08-19T06:57:07.980Z,22.43
2022-08-19T06:59:34.874Z,22.56
2022-08-19T07:02:05.843Z,22.67
2022-08-19T07:04:34.233Z,22.73
2022-08-19T07:07:20.291Z,22.74
2022-08-19T07:09:58.459Z,22.75
2022-08-19T07:12:31.976Z,22.87
2022-08-19T07:14:59.453Z,22.96
2022-08-19T07:17:27.334Z,23.09
2022-08-19T07:19:54.839Z,23.16
2022-08-19T07:22:22.703Z,23.22
2022-08-19T07:24:51.944Z,23.30
2022-08-19T07:27:19.335Z,23.37
2022-08-19T07:29:57.097Z,23.44
2022-08-19T07:32:25.905Z,23.52
2022-08-19T07:34:52.706Z,23.51
2022-08-19T07:37:19.530Z,23.59
2022-08-19T07:39:46.337Z,23.60
2022-08-19T07:42:13.603Z,23.65
2022-08-19T07:44:41.623Z,23.73
2022-08-19T07:47:08.613Z,23.85
2022-08-19T07:49:55.550Z,24.03
2022-08-19T07:52:22.847Z,24.16
2022-08-19T07:54:49.672Z,24.20
2022-08-19T07:57:17.748Z,24.31
2022-08-19T07:59:44.598Z,24.50
2022-08-19T08:02:11.590Z,24.60
2022-08-19T08:04:38.483Z,24.69
2022-08-19T08:07:07.306Z,24.84
2022-08-19T08:09:39.289Z,24.89
2022-08-19T08:12:34.287Z,24.87
2022-08-19T08:15:08.947Z,24.94
2022-08-19T08:17:49.821Z,25.04
2022-08-19T08:20:20.663Z,25.16
2022-08-19T08:22:48.912Z,25.35
2022-08-19T08:25:20.415Z,25.42
2022-08-19T08:27:48.664Z,25.46
2022-08-19T08:30:24.355Z,25.58
2022-08-19T08:32:52.580Z,25.71
2022-08-19T08:35:23.116Z,25.69
2022-08-19T08:37:51.712Z,25.73
2022-08-19T08:40:39.997Z,25.78
2022-08-19T08:43:15.928Z,25.82
2022-08-19T08:45:53.927Z,25.93
2022-08-19T08:48:45.470Z,25.95
2022-08-19T08:51:20.595Z,26.00
2022-08-19T08:53:51.699Z,26.02
2022-08-19T08:56:23.558Z,26.03
2022-08-19T08:58:59.504Z,26.07
2022-08-19T09:01:29.063Z,26.15
2022-08-19T09:04:02.915Z,26.23
2022-08-19T09:06:40.715Z,26.25
2022-08-19T09:09:17.751Z,26.35
2022-08-19T09:12:03.130Z,26.50
2022-08-19T09:14:51.621Z,26.55
2022-08-19T09:17:22.843Z,26.69
2022-08-19T09:19:56.228Z,26.77
2022-08-19T09:22:25.561Z,26.91
2022-08-19T09:24:55.337Z,26.93
2022-08-19T09:27:23.647Z,27.02
2022-08-19T09:30:14.223Z,27.14
2022-08-19T09:32:41.063Z,27.20
2022-08-19T09:35:08.726Z,27.23
2022-08-19T09:37:35.986Z,27.30
2022-08-19T09:40:03.614Z,27.34
2022-08-19T09:42:35.391Z,27.39
2022-08-19T09:45:05.006Z,27.47
2022-08-19T09:47:32.449Z,27.65
2022-08-19T09:49:59.269Z,27.70
2022-08-19T09:52:26.119Z,27.83
2022-08-19T09:55:00.540Z,27.87
2022-08-19T09:57:27.422Z,27.87
2022-08-19T09:59:54.328Z,27.84
2022-08-19T10:02:22.163Z,27.79
2022-08-19T10:04:49.485Z,27.78
2022-08-19T10:07:16.881Z,27.77
2022-08-19T10:09:44.761Z,27.82
2022-08-19T10:12:13.627Z,27.82
2022-08-19T10:14:44.983Z,27.82
2022-08-19T10:17:19.958Z,27.80
2022-08-19T10:19:55.158Z,27.82
2022-08-19T10:22:23.955Z,27.79
2022-08-19T10:24:53.411Z,27.79
2022-08-19T10:27:20.225Z,27.80
2022-08-19T10:29:47.151Z,27.81
2022-08-19T10:32:14.328Z,27.72
2022-08-19T10:34:48.633Z,27.68
2022-08-19T10:37:23.932Z,27.65
2022-08-19T10:39:56.279Z,27.57
2022-08-19T10:42:23.261Z,27.49
2022-08-19T10:44:51.877Z,27.45
2022-08-19T10:47:24.685Z,27.41
2022-08-19T10:49:54.283Z,27.40
2022-08-19T10:52:25.967Z,27.37
2022-08-19T10:54:59.650Z,27.27
2022-08-19T10:57:52.350Z,27.11
2022-08-19T11:00:22.078Z,27.13
2022-08-19T11:02:48.829Z,27.10
2022-08-19T11:05:16.479Z,26.98
2022-08-19T11:07:43.954Z,26.98
2022-08-19T11:10:16.167Z,26.88
2022-08-19T11:12:45.772Z,26.92
2022-08-19T11:15:12.572Z,26.85
2022-08-19T11:17:40.082Z,26.82
2022-08-19T11:20:07.511Z,26.77
2022-08-19T11:22:39.052Z,26.80
2022-08-19T11:25:11.400Z,26.80
2022-08-19T11:27:41.982Z,26.86
2022-08-19T11:30:12.964Z,26.86
2022-08-19T11:32:45.875Z,26.90
2022-08-19T11:35:15.586Z,26.97
2022-08-19T11:37:42.469Z,26.90
2022-08-19T11:40:10.025Z,26.84
2022-08-19T11:42:37.027Z,26.83
2022-08-19T11:45:04.497Z,26.82
2022-08-19T11:47:31.577Z,26.76
2022-08-19T11:49:58.353Z,26.85
2022-08-19T11:52:25.219Z,27.06
2022-08-19T11:54:52.064Z,27.18
2022-08-19T11:57:18.922Z,27.42
2022-08-19T11:59:52.915Z,27.47
2022-08-19T12:02:20.753Z,27.54
2022-08-19T12:04:47.773Z,27.45
2022-08-19T12:07:14.633Z,27.41
2022-08-19T12:09:42.676Z,27.53
2022-08-19T12:12:10.872Z,27.51
2022-08-19T12:14:37.814Z,27.53
2022-08-19T12:17:04.655Z,27.59
2022-08-19T12:19:31.717Z,27.67
2022-08-19T12:22:02.876Z,27.76
2022-08-19T12:24:32.894Z,27.66
2022-08-19T12:27:00.904Z,27.65
2022-08-19T12:29:30.943Z,27.62
2022-08-19T12:32:00.838Z,27.72
2022-08-19T12:34:29.700Z,27.70
2022-08-19T12:36:58.043Z,27.65
2022-08-19T12:39:26.619Z,27.68
2022-08-19T12:41:54.694Z,27.55
2022-08-19T12:44:29.199Z,27.55
2022-08-19T12:46:57.806Z,27.47
2022-08-19T12:49:52.386Z,27.41
2022-08-19T12:52:11.773Z,27.17
2022-08-19T12:54:41.019Z,27.15
2022-08-19T12:57:09.113Z,27.03
2022-08-19T12:59:37.150Z,26.87
2022-08-19T13:02:07.740Z,26.92
2022-08-19T13:04:36.249Z,26.95
2022-08-19T13:07:04.433Z,26.88
2022-08-19T13:09:31.383Z,26.70
2022-08-19T13:11:58.356Z,26.59
2022-08-19T13:14:25.166Z,26.53
2022-08-19T13:16:53.977Z,26.55
2022-08-19T13:19:20.960Z,26.54
2022-08-19T13:21:51.334Z,26.54
2022-08-19T13:24:31.383Z,26.57
2022-08-19T13:27:02.001Z,26.60
2022-08-19T13:29:32.278Z,26.63
2022-08-19T13:31:59.540Z,26.60
2022-08-19T13:34:33.560Z,26.57
2022-08-19T13:37:01.707Z,26.43
2022-08-19T13:39:28.526Z,26.49
2022-08-19T13:41:55.453Z,26.48
2022-08-19T13:44:22.449Z,26.50
2022-08-19T13:46:50.451Z,26.46
2022-08-19T13:49:21.630Z,26.43
2022-08-19T13:51:48.626Z,26.47
2022-08-19T13:54:15.529Z,26.35
2022-08-19T13:56:45.404Z,26.30
2022-08-19T13:59:13.411Z,26.37
2022-08-19T14:01:40.694Z,26.34
2022-08-19T14:04:08.292Z,26.34
2022-08-19T14:06:36.156Z,26.38
2022-08-19T14:09:03.165Z,26.25
2022-08-19T14:11:30.962Z,26.27
2022-08-19T14:13:58.117Z,26.31
2022-08-19T14:16:25.691Z,26.32
2022-08-19T14:18:52.507Z,26.45
2022-08-19T14:21:23.177Z,26.50
2022-08-19T14:23:50.168Z,26.50
2022-08-19T14:26:18.908Z,26.59
2022-08-19T14:28:46.998Z,26.66
2022-08-19T14:31:16.891Z,26.73
2022-08-19T14:33:43.723Z,26.67
2022-08-19T14:36:10.778Z,26.76
2022-08-19T14:38:37.630Z,26.75
2022-08-19T14:41:10.153Z,26.75
2022-08-19T14:43:37.192Z,26.69
2022-08-19T14:46:04.042Z,26.74
2022-08-19T14:48:30.930Z,26.67
2022-08-19T14:50:57.804Z,26.72
2022-08-19T14:53:24.572Z,26.68
2022-08-19T14:55:51.896Z,26.71
2022-08-19T14:58:29.012Z,26.71
2022-08-19T15:00:59.853Z,26.74
2022-08-19T15:03:27.175Z,26.80
2022-08-19T15:05:54.143Z,26.93
2022-08-19T15:08:20.947Z,26.80
2022-08-19T15:10:47.767Z,26.88
2022-08-19T15:13:15.397Z,26.77
2022-08-19T15:15:42.613Z,26.73
2022-08-19T15:18:10.312Z,26.82
2022-08-19T15:20:37.568Z,26.98
2022-08-19T15:23:04.379Z,27.13
2022-08-19T15:25:31.256Z,27.17
2022-08-19T15:27:58.002Z,27.15
2022-08-19T15:30:28.160Z,27.14
2022-08-19T15:32:56.590Z,27.03
2022-08-19T15:35:24.592Z,27.12
2022-08-19T15:37:54.094Z,26.90
2022-08-19T15:40:22.779Z,26.83
2022-08-19T15:42:49.811Z,26.87
2022-08-19T15:45:18.870Z,26.92
2022-08-19T15:47:45.865Z,26.85
2022-08-19T15:50:20.890Z,26.89
2022-08-19T15:52:54.832Z,27.01
2022-08-19T15:55:33.628Z,27.00
2022-08-19T15:58:07.956Z,27.01
2022-08-19T16:00:52.843Z,26.93
2022-08-19T16:03:20.163Z,26.98
2022-08-19T16:05:46.937Z,26.95
2022-08-19T16:08:13.778Z,26.99
2022-08-19T16:10:40.600Z,27.06
2022-08-19T16:13:07.537Z,27.05
2022-08-19T16:15:35.540Z,27.09
2022-08-19T16:18:02.385Z,27.08
2022-08-19T16:20:29.949Z,27.06
2022-08-19T16:22:59.280Z,27.08
2022-08-19T16:25:27.668Z,27.04
2022-08-19T16:28:06.321Z,27.05
2022-08-19T16:30:36.494Z,26.96
2022-08-19T16:33:04.264Z,26.92
2022-08-19T16:35:31.163Z,26.92
2022-08-19T16:37:57.923Z,27.05
2022-08-19T16:40:24.856Z,27.05
2022-08-19T16:42:51.616Z,26.95
2022-08-19T16:45:18.795Z,27.00
2022-08-19T16:47:45.881Z,26.97
2022-08-19T16:50:12.900Z,27.01
2022-08-19T16:52:39.766Z,27.15
2022-08-19T16:55:06.788Z,27.12
2022-08-19T16:57:33.546Z,27.05
2022-08-19T17:00:00.626Z,27.00
2022-08-19T17:02:29.539Z,26.84
2022-08-19T17:04:58.776Z,26.92
2022-08-19T17:07:28.616Z,26.78
2022-08-19T17:09:56.503Z,26.68
2022-08-19T17:12:31.598Z,26.55
2022-08-19T17:15:01.898Z,26.50
2022-08-19T17:17:30.234Z,26.54
2022-08-19T17:19:59.529Z,26.47
2022-08-19T17:22:27.211Z,26.43
2022-08-19T17:24:58.037Z,26.34
2022-08-19T17:27:32.110Z,26.31
2022-08-19T17:30:01.064Z,26.30
2022-08-19T17:32:27.963Z,26.20
2022-08-19T17:34:54.828Z,26.18
2022-08-19T17:37:22.141Z,26.20
2022-08-19T17:39:49.293Z,26.22
2022-08-19T17:42:16.317Z,26.08
2022-08-19T17:44:44.838Z,26.07
2022-08-19T17:47:17.514Z,25.93
2022-08-19T17:49:44.205Z,25.97
2022-08-19T17:52:11.155Z,25.88
2022-08-19T17:54:37.889Z,25.77
2022-08-19T17:57:04.965Z,25.82
2022-08-19T17:59:31.709Z,25.71
2022-08-19T18:01:59.589Z,25.67
2022-08-19T18:04:27.178Z,25.68
2022-08-19T18:06:55.604Z,25.62
2022-08-19T18:09:27.735Z,25.60
2022-08-19T18:11:57.410Z,25.64
2022-08-19T18:14:32.072Z,25.56
2022-08-19T18:17:07.471Z,25.52
2022-08-19T18:19:41.000Z,25.51
2022-08-19T18:22:08.756Z,25.49
2022-08-19T18:24:39.379Z,25.52
2022-08-19T18:27:06.153Z,25.54
2022-08-19T18:29:32.966Z,25.51
2022-08-19T18:31:59.766Z,25.51
2022-08-19T18:34:26.685Z,25.52
2022-08-19T18:36:54.165Z,25.56
2022-08-19T18:39:21.581Z,25.43
2022-08-19T18:41:49.345Z,25.54
2022-08-19T18:44:16.178Z,25.65
2022-08-19T18:46:43.406Z,25.70
2022-08-19T18:49:12.352Z,25.52
2022-08-19T18:51:40.806Z,25.40
2022-08-19T18:54:07.619Z,25.32
2022-08-19T18:56:34.408Z,25.16
2022-08-19T18:59:01.992Z,25.05
2022-08-19T19:01:36.962Z,24.94
2022-08-19T19:04:09.334Z,25.17
2022-08-19T19:06:37.100Z,25.35
2022-08-19T19:09:05.563Z,25.44
2022-08-19T19:11:36.294Z,25.11
2022-08-19T19:14:06.751Z,24.54
2022-08-19T19:16:33.572Z,24.00
2022-08-19T19:19:01.203Z,23.59
2022-08-19T19:21:31.843Z,23.49
2022-08-19T19:24:02.293Z,23.88
2022-08-19T19:26:29.211Z,24.19
2022-08-19T19:28:56.342Z,23.71
2022-08-19T19:31:26.739Z,24.06
2022-08-19T19:33:55.850Z,24.43
2022-08-19T19:36:23.670Z,24.43
2022-08-19T19:38:50.863Z,24.17
2022-08-19T19:41:21.158Z,24.01
2022-08-19T19:43:48.008Z,24.33
2022-08-19T19:46:33.337Z,24.48
2022-08-19T19:49:00.505Z,24.42
2022-08-19T19:51:30.549Z,24.25
2022-08-19T19:54:05.502Z,24.07
2022-08-19T19:56:33.527Z,23.80
2022-08-19T19:59:00.774Z,23.53
2022-08-19T20:01:27.650Z,23.29
2022-08-19T20:03:54.533Z,23.16
2022-08-19T20:06:21.605Z,23.06
2022-08-19T20:08:48.567Z,22.96
2022-08-19T20:11:30.914Z,22.81
2022-08-19T20:13:59.987Z,22.89
2022-08-19T20:16:27.494Z,22.54
2022-08-19T20:18:55.628Z,22.54
2022-08-19T20:21:26.067Z,22.88
2022-08-19T20:24:09.471Z,22.46
2022-08-19T20:26:37.579Z,22.51
2022-08-19T20:29:13.557Z,22.80
2022-08-19T20:31:59.003Z,22.76
2022-08-19T20:34:27.868Z,22.56
2022-08-19T20:36:54.728Z,22.57
2022-08-19T20:39:21.624Z,22.10
2022-08-19T20:41:48.463Z,21.99
2022-08-19T20:44:15.359Z,21.84
2022-08-19T20:46:42.269Z,21.73
2022-08-19T20:49:22.581Z,21.81
2022-08-19T20:51:49.393Z,21.90
2022-08-19T20:54:16.270Z,21.67
2022-08-19T20:56:43.201Z,21.72
2022-08-19T20:59:10.003Z,21.72
2022-08-19T21:01:37.382Z,22.01
2022-08-19T21:04:05.216Z,22.27
2022-08-19T21:06:31.984Z,22.11
2022-08-19T21:08:59.380Z,22.06
2022-08-19T21:11:26.193Z,21.88
2022-08-19T21:13:53.004Z,21.65
2022-08-19T21:16:19.885Z,21.51
2022-08-19T21:18:46.630Z,21.68
2022-08-19T21:21:13.523Z,22.02
2022-08-19T21:23:40.425Z,21.89
2022-08-19T21:26:08.258Z,21.88
2022-08-19T21:28:36.594Z,22.01
2022-08-19T21:31:06.291Z,21.72
2022-08-19T21:33:33.292Z,21.26
2022-08-19T21:36:01.082Z,21.02
2022-08-19T21:38:28.111Z,20.90
2022-08-19T21:40:56.282Z,20.91
2022-08-19T21:43:24.818Z,21.18
2022-08-19T21:45:51.650Z,21.16
2022-08-19T21:48:19.619Z,21.11
2022-08-19T21:50:48.665Z,21.16
2022-08-19T21:53:19.325Z,21.28
2022-08-19T21:55:53.535Z,21.50
2022-08-19T21:58:30.215Z,21.60
2022-08-19T22:00:59.615Z,21.60
2022-08-19T22:03:27.463Z,21.55
2022-08-19T22:05:54.285Z,21.45
2022-08-19T22:08:21.130Z,21.29
2022-08-19T22:10:47.953Z,21.19
2022-08-19T22:13:14.803Z,21.29
2022-08-19T22:15:41.596Z,21.27
2022-08-19T22:18:09.688Z,21.19
2022-08-19T22:20:37.718Z,21.12
2022-08-19T22:23:08.462Z,20.95
2022-08-19T22:25:41.460Z,20.71
2022-08-19T22:28:12.112Z,20.42
2022-08-19T22:30:42.492Z,20.19
2022-08-19T22:33:13.312Z,20.08
2022-08-19T22:35:42.424Z,20.04
2022-08-19T22:38:10.909Z,20.00
2022-08-19T22:40:42.861Z,19.99
2022-08-19T22:43:20.391Z,19.92
2022-08-19T22:45:48.900Z,19.92
2022-08-19T22:48:19.658Z,19.94
2022-08-19T22:50:47.983Z,19.94
2022-08-19T22:53:15.690Z,19.88
2022-08-19T22:55:42.560Z,19.86
2022-08-19T22:58:09.431Z,19.88
2022-08-19T23:00:36.284Z,19.90
2022-08-19T23:03:03.171Z,19.93
2022-08-19T23:05:30.110Z,19.91
2022-08-19T23:07:58.253Z,19.89
2022-08-19T23:10:27.984Z,19.89
2022-08-19T23:12:57.981Z,19.90
2022-08-19T23:15:28.682Z,19.90
2022-08-19T23:17:59.418Z,19.93
2022-08-19T23:20:29.925Z,19.95
2022-08-19T23:22:57.657Z,19.97
2022-08-19T23:25:28.068Z,20.00
2022-08-19T23:27:55.573Z,20.02
2022-08-19T23:30:23.019Z,20.02
2022-08-19T23:32:50.662Z,20.06
2022-08-19T23:35:17.499Z,20.05
2022-08-19T23:37:44.460Z,20.06
2022-08-19T23:40:12.023Z,20.06
2022-08-19T23:42:42.929Z,20.05
2022-08-19T23:45:10.122Z,20.04
2022-08-19T23:47:37.821Z,20.05
2022-08-19T23:50:08.959Z,20.05
2022-08-19T23:52:50.901Z,20.07
2022-08-19T23:55:20.072Z,20.09
2022-08-19T23:57:46.829Z,20.09
